Time;durP1;ratioP1;P1;durP2;ratioP2;P2;SDS_P1;SDS_P2;PMS_P1;PMS_P2;Temp;Humidity;BMP_temperature;BMP_pressure;BME280_temperature;BME280_humidity;BME280_pressure;Samples;Min_cycle;Max_cycle;Signal;HPM_P1;HPM_P2
2023/03/28 00:04:06;;;;;;;5.30;1.75;;;12.70;78.50;;;;;;10776403;33;20043;-76
2023/03/28 00:10:09;;;;;;;3.65;2.25;;;12.40;79.00;;;;;;10776551;33;20094;-75
2023/03/28 00:16:13;;;;;;;5.32;2.55;;;12.10;79.30;;;;;;10771663;32;20036;-75
2023/03/28 00:22:15;;;;;;;0.98;0.90;;;11.90;79.60;;;;;;10789013;33;20054;-75
2023/03/28 00:28:18;;;;;;;1.45;1.12;;;11.70;80.10;;;;;;10788746;33;20021;-75
2023/03/28 00:34:20;;;;;;;1.70;1.15;;;11.80;80.20;;;;;;10786064;33;20082;-75
2023/03/28 00:40:29;;;;;;;3.62;2.08;;;12.00;79.30;;;;;;10788559;33;20046;-75
2023/03/28 00:46:38;;;;;;;2.08;1.55;;;12.20;78.50;;;;;;10786247;33;20020;-77
2023/03/28 00:52:48;;;;;;;4.07;1.60;;;12.20;78.10;;;;;;10771190;33;20460;-77
2023/03/28 00:58:51;;;;;;;3.12;1.45;;;12.20;77.70;;;;;;10773644;33;20395;-77
2023/03/28 01:04:58;;;;;;;2.67;2.03;;;12.20;77.40;;;;;;10785628;33;20051;-77
2023/03/28 01:11:02;;;;;;;3.50;2.47;;;12.10;77.30;;;;;;10788003;33;20396;-77
2023/03/28 01:17:04;;;;;;;2.05;1.35;;;12.10;76.60;;;;;;10785577;33;20051;-77
2023/03/28 01:23:26;;;;;;;1.58;1.15;;;12.10;76.10;;;;;;10785376;33;20047;-77
2023/03/28 01:29:47;;;;;;;3.78;1.87;;;11.90;76.20;;;;;;10786917;33;20024;-77
2023/03/28 01:36:05;;;;;;;3.37;1.60;;;11.80;76.50;;;;;;10783386;33;20326;-77
2023/03/28 01:42:07;;;;;;;2.15;1.20;;;11.70;76.40;;;;;;10787088;33;20322;-77
2023/03/28 01:48:10;;;;;;;1.45;1.12;;;11.40;76.30;;;;;;10787040;33;20042;-77
2023/03/28 01:54:37;;;;;;;3.28;1.48;;;11.20;76.90;;;;;;10774156;33;20029;-77
2023/03/28 02:00:46;;;;;;;5.00;2.17;;;11.20;77.10;;;;;;10791084;33;20020;-77
2023/03/28 02:06:54;;;;;;;1.75;1.45;;;11.40;77.10;;;;;;10791785;33;20052;-77
2023/03/28 02:13:04;;;;;;;2.72;1.90;;;11.20;76.80;;;;;;10777498;33;20028;-76
2023/03/28 02:19:12;;;;;;;3.37;1.73;;;10.80;77.20;;;;;;10788701;33;20341;-77
2023/03/28 02:25:15;;;;;;;1.90;1.75;;;10.70;77.70;;;;;;10787482;33;20029;-77
2023/03/28 02:31:21;;;;;;;1.37;0.93;;;10.50;77.60;;;;;;10789821;33;20039;-76
2023/03/28 02:37:30;;;;;;;2.20;1.58;;;10.30;78.30;;;;;;10778890;33;20012;-76
2023/03/28 02:43:46;;;;;;;3.28;1.80;;;10.40;77.70;;;;;;10779288;33;20043;-77
2023/03/28 02:50:09;;;;;;;3.30;1.33;;;10.40;77.90;;;;;;10790957;33;20410;-77
2023/03/28 02:56:52;;;;;;;3.45;2.25;;;10.40;77.50;;;;;;10789687;33;20090;-77
2023/03/28 03:02:56;;;;;;;2.30;1.60;;;10.40;77.60;;;;;;10850447;32;20020;-76
2023/03/28 03:08:59;;;;;;;4.18;1.90;;;10.50;77.50;;;;;;10866196;32;20376;-77
2023/03/28 03:15:10;;;;;;;7.87;2.28;;;10.50;77.10;;;;;;10862992;32;20044;-75
2023/03/28 03:21:14;;;;;;;3.42;2.10;;;10.30;77.40;;;;;;10864727;32;20062;-75
2023/03/28 03:27:20;;;;;;;2.08;1.20;;;10.40;77.20;;;;;;10852994;32;20023;-75
2023/03/28 03:33:22;;;;;;;4.10;2.12;;;10.20;77.80;;;;;;10864952;32;20035;-75
2023/03/28 03:39:27;;;;;;;11.75;2.22;;;10.60;77.50;;;;;;10806528;32;20016;-76
2023/03/28 03:45:31;;;;;;;2.60;1.83;;;10.90;76.80;;;;;;10787645;33;20024;-75
2023/03/28 03:51:33;;;;;;;2.72;1.80;;;10.80;76.20;;;;;;10789481;33;20025;-76
2023/03/28 03:57:35;;;;;;;3.67;2.25;;;11.00;76.30;;;;;;10789284;33;20020;-76
2023/03/28 04:03:39;;;;;;;2.70;1.60;;;11.10;76.00;;;;;;10788398;33;20024;-76
2023/03/28 04:09:41;;;;;;;2.22;1.50;;;11.10;75.50;;;;;;10775231;33;20044;-76
2023/03/28 04:15:46;;;;;;;1.70;1.35;;;10.80;75.30;;;;;;10788994;33;20402;-77
2023/03/28 04:21:51;;;;;;;3.05;1.40;;;10.50;75.20;;;;;;10788527;33;20068;-77
2023/03/28 04:27:54;;;;;;;4.55;2.05;;;9.80;76.10;;;;;;10761636;33;20040;-77
2023/03/28 04:33:59;;;;;;;4.05;1.30;;;9.50;77.20;;;;;;10775068;33;20047;-77
2023/03/28 04:40:07;;;;;;;3.10;1.95;;;9.30;77.80;;;;;;10787580;33;20020;-77
2023/03/28 04:46:11;;;;;;;2.60;1.80;;;9.60;77.20;;;;;;10788481;33;20338;-77
2023/03/28 04:52:14;;;;;;;2.53;2.33;;;9.40;77.50;;;;;;10787406;33;20035;-77
2023/03/28 04:58:19;;;;;;;4.22;1.80;;;9.70;77.80;;;;;;10774724;33;20024;-77
2023/03/28 05:04:24;;;;;;;5.35;3.22;;;10.20;77.40;;;;;;10783751;33;20145;-77
2023/03/28 05:10:27;;;;;;;4.90;2.58;;;10.00;76.90;;;;;;10775670;33;20012;-77
2023/03/28 05:16:29;;;;;;;8.07;4.57;;;10.00;76.50;;;;;;10786649;33;20046;-77
2023/03/28 05:22:35;;;;;;;5.78;3.67;;;10.10;77.10;;;;;;10787137;33;20054;-77
2023/03/28 05:28:38;;;;;;;9.00;3.62;;;10.40;77.60;;;;;;10786969;33;20017;-76
2023/03/28 05:34:40;;;;;;;7.35;4.10;;;10.60;77.60;;;;;;10793304;33;20024;-77
2023/03/28 05:40:43;;;;;;;4.90;2.55;;;10.70;77.30;;;;;;10791593;33;20025;-77
2023/03/28 05:46:51;;;;;;;2.72;1.80;;;10.50;77.20;;;;;;10791662;33;20397;-76
2023/03/28 05:52:54;;;;;;;2.95;2.10;;;10.70;78.10;;;;;;10778395;33;20051;-77
2023/03/28 05:58:56;;;;;;;2.37;1.30;;;10.70;77.70;;;;;;10790608;33;20019;-76
2023/03/28 06:04:58;;;;;;;2.28;1.33;;;10.40;78.00;;;;;;10778676;33;20043;-77
2023/03/28 06:11:02;;;;;;;1.55;1.20;;;10.40;78.80;;;;;;10788584;32;20064;-77
2023/03/28 06:17:06;;;;;;;1.40;0.95;;;10.70;78.60;;;;;;10778030;33;20001;-77
2023/03/28 06:23:09;;;;;;;1.73;1.35;;;10.60;71.30;;;;;;10775608;32;20039;-76
2023/03/28 06:29:12;;;;;;;2.00;1.15;;;10.40;75.10;;;;;;10791056;33;20012;-77
2023/03/28 06:35:15;;;;;;;1.70;0.98;;;10.60;76.30;;;;;;10791551;33;20398;-77
2023/03/28 06:41:17;;;;;;;1.98;1.12;;;10.60;75.20;;;;;;10788344;33;20024;-77
2023/03/28 06:47:19;;;;;;;1.58;0.95;;;10.60;73.30;;;;;;10791828;33;20268;-77
2023/03/28 06:53:21;;;;;;;1.17;0.93;;;10.70;74.20;;;;;;10790608;33;20048;-76
2023/03/28 06:59:24;;;;;;;2.45;1.40;;;10.70;74.00;;;;;;10790624;33;20016;-77
2023/03/28 07:05:27;;;;;;;2.83;1.10;;;10.70;71.80;;;;;;10836109;32;20058;-77
2023/03/28 07:11:30;;;;;;;2.60;1.48;;;10.70;69.10;;;;;;10789997;33;20016;-78
2023/03/28 07:17:32;;;;;;;3.72;1.42;;;10.70;64.20;;;;;;10788638;33;20382;-78
2023/03/28 07:23:35;;;;;;;2.62;1.08;;;10.70;60.90;;;;;;10775924;33;20408;-77
2023/03/28 07:29:37;;;;;;;1.27;0.93;;;10.80;58.90;;;;;;10787346;33;20017;-77
2023/03/28 07:35:40;;;;;;;1.15;0.98;;;10.90;59.90;;;;;;10773932;33;20028;-77
2023/03/28 07:41:46;;;;;;;1.30;0.80;;;11.00;59.70;;;;;;10788342;33;20431;-76
2023/03/28 07:47:49;;;;;;;0.95;0.60;;;11.20;57.30;;;;;;10788320;33;20448;-78
2023/03/28 07:53:51;;;;;;;2.50;1.12;;;11.20;55.90;;;;;;10758966;27;20507;-77
2023/03/28 07:59:55;;;;;;;0.88;0.75;;;11.30;55.70;;;;;;10748189;32;20113;-76
2023/03/28 08:06:06;;;;;;;4.70;1.37;;;11.40;55.40;;;;;;10740803;32;20041;-76
2023/03/28 08:12:09;;;;;;;0.60;0.60;;;11.50;55.10;;;;;;10751399;33;20024;-77
2023/03/28 08:18:12;;;;;;;1.50;0.80;;;11.50;56.90;;;;;;10749967;33;20061;-76
2023/03/28 08:24:14;;;;;;;0.90;0.70;;;11.70;60.20;;;;;;10752516;33;20020;-76
2023/03/28 08:30:18;;;;;;;1.00;0.80;;;11.90;63.50;;;;;;10752416;33;20033;-77
2023/03/28 08:36:22;;;;;;;2.22;1.10;;;12.20;66.00;;;;;;10751346;33;20024;-77
2023/03/28 08:42:59;;;;;;;0.80;0.75;;;12.30;65.50;;;;;;10749125;33;20074;-77
2023/03/28 08:49:06;;;;;;;2.65;0.82;;;12.30;64.00;;;;;;10750649;33;20028;-77
2023/03/28 08:55:30;;;;;;;0.40;0.40;;;12.50;66.00;;;;;;10746966;33;20308;-77
2023/03/28 09:01:34;;;;;;;0.50;0.50;;;12.40;63.20;;;;;;10751669;33;20071;-76
2023/03/28 09:07:54;;;;;;;0.85;0.70;;;12.60;68.10;;;;;;10755652;32;20055;-75
2023/03/28 09:14:19;;;;;;;3.15;0.75;;;12.70;65.10;;;;;;10755410;32;20090;-75
2023/03/28 09:20:38;;;;;;;0.57;0.57;;;12.80;61.20;;;;;;10903311;32;20031;-75
2023/03/28 09:26:51;;;;;;;0.77;0.73;;;12.80;62.90;;;;;;10902373;32;20054;-75
2023/03/28 09:32:57;;;;;;;1.37;1.00;;;12.90;61.10;;;;;;10905985;32;20015;-75
2023/03/28 09:39:15;;;;;;;0.52;0.35;;;13.00;59.30;;;;;;10905550;32;20023;-76
2023/03/28 09:45:25;;;;;;;0.95;0.55;;;13.10;61.50;;;;;;10902098;32;20288;-75
2023/03/28 09:51:38;;;;;;;0.60;0.60;;;13.20;61.60;;;;;;10902102;32;20027;-75
2023/03/28 09:58:10;;;;;;;0.88;0.80;;;13.30;62.00;;;;;;10745539;32;20065;-75
2023/03/28 10:04:32;;;;;;;0.75;0.62;;;13.40;57.30;;;;;;10719123;33;20056;-75
2023/03/28 10:10:39;;;;;;;1.40;1.30;;;13.50;58.90;;;;;;10720040;33;20025;-75
2023/03/28 10:16:41;;;;;;;2.05;0.85;;;13.50;54.40;;;;;;10716260;33;20024;-76
2023/03/28 10:22:48;;;;;;;1.50;1.12;;;13.70;60.60;;;;;;10715404;33;20037;-75
2023/03/28 10:28:53;;;;;;;1.00;0.88;;;13.80;57.10;;;;;;10720358;33;20025;-75
2023/03/28 10:35:05;;;;;;;1.17;0.73;;;13.90;49.30;;;;;;10718903;33;20017;-75
2023/03/28 10:41:18;;;;;;;2.05;1.12;;;13.90;51.60;;;;;;10717352;32;20059;-75
2023/03/28 10:47:21;;;;;;;1.33;1.20;;;14.20;54.50;;;;;;10715050;33;20033;-75
2023/03/28 10:53:57;;;;;;;1.58;1.12;;;14.30;54.10;;;;;;10717903;33;20021;-74
2023/03/28 11:00:45;;;;;;;1.67;1.10;;;14.50;52.90;;;;;;10713731;33;20044;-75
2023/03/28 11:06:59;;;;;;;1.15;1.10;;;14.70;52.30;;;;;;10829646;32;20032;-74
2023/03/28 11:13:27;;;;;;;1.40;1.17;;;14.90;48.70;;;;;;10828645;32;20020;-75
2023/03/28 11:19:44;;;;;;;1.80;1.52;;;15.00;50.40;;;;;;10824125;32;20051;-75
2023/03/28 11:25:59;;;;;;;2.53;1.50;;;15.50;49.10;;;;;;10828378;32;20027;-75
2023/03/28 11:32:09;;;;;;;1.73;1.15;;;15.60;43.00;;;;;;10828917;32;20046;-75
2023/03/28 11:38:16;;;;;;;1.12;1.00;;;15.80;47.60;;;;;;10825645;32;20024;-75
2023/03/28 11:44:30;;;;;;;1.17;1.10;;;16.10;47.10;;;;;;10716489;33;20421;-75
2023/03/28 11:50:46;;;;;;;2.37;1.35;;;16.20;47.60;;;;;;10717688;33;20473;-76
2023/03/28 11:57:13;;;;;;;1.45;1.35;;;16.30;45.80;;;;;;10717278;33;20017;-74
2023/03/28 12:03:53;;;;;;;2.33;1.67;;;16.30;42.00;;;;;;10716962;33;20375;-75
2023/03/28 12:10:15;;;;;;;1.25;1.05;;;16.30;41.00;;;;;;10715234;32;20059;-74
2023/03/28 12:16:23;;;;;;;2.25;1.25;;;16.40;43.90;;;;;;10716398;33;20039;-75
2023/03/28 12:23:00;;;;;;;2.25;1.48;;;16.50;43.70;;;;;;10715813;32;20037;-75
2023/03/28 12:29:24;;;;;;;2.65;1.58;;;16.70;42.30;;;;;;10715173;32;20041;-75
2023/03/28 12:35:39;;;;;;;1.52;1.40;;;16.70;42.50;;;;;;10711321;33;20021;-75
2023/03/28 12:41:42;;;;;;;3.40;1.60;;;16.70;42.40;;;;;;10712057;33;20059;-74
2023/03/28 12:47:51;;;;;;;1.55;1.40;;;16.90;42.90;;;;;;10715916;33;20323;-75
2023/03/28 12:54:13;;;;;;;1.00;0.98;;;16.80;44.20;;;;;;10711504;33;20387;-74
2023/03/28 13:00:22;;;;;;;1.35;1.25;;;17.00;43.70;;;;;;10716269;33;20028;-75
2023/03/28 13:06:29;;;;;;;3.55;2.20;;;17.20;45.60;;;;;;10714865;33;20021;-75
2023/03/28 13:12:53;;;;;;;1.40;1.30;;;17.30;44.70;;;;;;10715581;33;20025;-75
2023/03/28 13:19:10;;;;;;;2.55;1.73;;;17.30;44.00;;;;;;10712575;32;20043;-74
2023/03/28 13:25:34;;;;;;;4.50;1.73;;;17.50;42.60;;;;;;10714989;33;20053;-74
2023/03/28 13:31:42;;;;;;;4.72;1.65;;;17.40;43.10;;;;;;10714979;33;20036;-74
2023/03/28 13:37:45;;;;;;;3.43;1.50;;;17.30;42.80;;;;;;10714786;33;20036;-74
2023/03/28 13:43:52;;;;;;;2.08;1.60;;;17.40;43.60;;;;;;10710788;33;20387;-74
2023/03/28 13:50:01;;;;;;;1.95;1.75;;;17.50;43.70;;;;;;10716500;32;20039;-74
2023/03/28 13:56:25;;;;;;;2.03;1.77;;;17.70;44.20;;;;;;10717290;33;20033;-73
2023/03/28 14:02:42;;;;;;;2.28;2.00;;;17.70;43.10;;;;;;10719465;33;20067;-73
2023/03/28 14:08:45;;;;;;;2.55;1.73;;;17.70;43.70;;;;;;10719903;33;20044;-74
2023/03/28 14:14:51;;;;;;;3.20;2.10;;;17.50;44.30;;;;;;10729587;32;20037;-74
2023/03/28 14:20:55;;;;;;;2.33;1.70;;;17.50;45.90;;;;;;10714373;32;20033;-74
2023/03/28 14:27:08;;;;;;;3.40;1.80;;;17.50;44.10;;;;;;10743264;32;20024;-74
2023/03/28 14:33:10;;;;;;;3.20;2.20;;;17.50;43.20;;;;;;10755828;33;20024;-74
2023/03/28 14:39:17;;;;;;;1.40;1.30;;;17.50;44.20;;;;;;10754456;32;20024;-74
2023/03/28 14:45:26;;;;;;;1.58;1.30;;;17.70;46.00;;;;;;10764928;32;20063;-74
2023/03/28 14:51:37;;;;;;;;;;;18.00;46.50;;;;;;10744000;33;20033;-74
2023/03/28 14:57:40;;;;;;;2.20;1.73;;;18.00;46.50;;;;;;10719534;33;20203;-74
2023/03/28 15:03:46;;;;;;;5.05;1.80;;;18.20;46.00;;;;;;10714256;33;20060;-73
2023/03/28 15:10:07;;;;;;;2.03;1.77;;;18.40;47.40;;;;;;10718628;33;20035;-74
2023/03/28 15:16:19;;;;;;;1.70;1.27;;;18.70;47.40;;;;;;10717061;32;20059;-74
2023/03/28 15:22:25;;;;;;;1.73;1.48;;;18.80;46.80;;;;;;10718641;33;20021;-74
2023/03/28 15:28:29;;;;;;;2.37;1.98;;;18.90;48.00;;;;;;10716604;32;20040;-73
2023/03/28 15:34:45;;;;;;;1.50;1.40;;;19.20;46.30;;;;;;10716810;33;20040;-74
2023/03/28 15:40:50;;;;;;;2.15;1.95;;;19.50;47.60;;;;;;10718106;33;20409;-74
2023/03/28 15:47:18;;;;;;;1.30;1.05;;;19.70;47.70;;;;;;10716801;33;20092;-74
2023/03/28 15:53:24;;;;;;;1.53;1.20;;;20.30;46.50;;;;;;10655766;27;6993308;-74
2023/03/28 15:59:44;;;;;;;2.55;1.45;;;20.80;45.70;;;;;;10906900;32;20011;-74
2023/03/28 16:05:54;;;;;;;4.10;1.30;;;21.30;45.70;;;;;;10906550;32;20050;-74
2023/03/28 16:12:02;;;;;;;2.00;1.20;;;22.00;48.20;;;;;;10902312;32;20016;-74
2023/03/28 16:18:11;;;;;;;8.30;1.27;;;22.70;47.50;;;;;;10905916;32;20328;-74
2023/03/28 16:24:14;;;;;;;1.15;0.80;;;22.80;46.70;;;;;;10903411;32;20031;-75
2023/03/28 16:30:32;;;;;;;0.73;0.65;;;23.30;46.80;;;;;;10904537;32;20028;-74
2023/03/28 16:36:35;;;;;;;2.30;1.12;;;23.80;48.40;;;;;;10904320;32;20030;-74
2023/03/28 16:42:37;;;;;;;2.37;1.23;;;24.20;49.90;;;;;;10888437;32;20062;-74
2023/03/28 16:48:40;;;;;;;2.12;1.42;;;23.40;51.10;;;;;;10904466;32;20019;-74
2023/03/28 16:54:43;;;;;;;2.53;1.25;;;21.30;54.40;;;;;;10902200;32;20027;-74
2023/03/28 17:00:45;;;;;;;1.95;1.37;;;19.80;58.00;;;;;;10901835;32;20058;-74
2023/03/28 17:06:47;;;;;;;1.23;1.12;;;18.80;60.40;;;;;;10899312;32;20039;-75
2023/03/28 17:12:50;;;;;;;5.50;3.75;;;18.30;62.60;;;;;;10901479;32;20313;-75
2023/03/28 17:18:52;;;;;;;3.08;2.50;;;18.20;63.30;;;;;;10903274;32;20069;-75
2023/03/28 17:24:55;;;;;;;5.25;3.17;;;18.20;63.60;;;;;;10905070;32;20053;-75
2023/03/28 17:30:58;;;;;;;4.60;2.92;;;18.00;64.00;;;;;;10908911;32;20027;-75
2023/03/28 17:37:00;;;;;;;4.03;2.67;;;17.70;64.70;;;;;;10910783;32;20019;-74
2023/03/28 17:43:03;;;;;;;3.90;2.37;;;17.20;64.20;;;;;;10907447;32;20027;-74
2023/03/28 17:49:06;;;;;;;4.37;2.47;;;16.80;64.50;;;;;;10906070;32;20405;-74
2023/03/28 17:55:09;;;;;;;4.47;3.33;;;16.50;66.80;;;;;;10907627;32;20054;-74
2023/03/28 18:01:18;;;;;;;3.83;2.28;;;16.30;67.80;;;;;;10906602;32;20023;-74
2023/03/28 18:07:20;;;;;;;2.87;2.13;;;16.30;68.20;;;;;;10906447;32;20027;-75
2023/03/28 18:13:22;;;;;;;4.32;2.60;;;16.20;69.10;;;;;;10907675;32;20020;-75
2023/03/28 18:19:24;;;;;;;3.62;3.08;;;16.10;69.90;;;;;;10907413;32;20053;-75
2023/03/28 18:25:27;;;;;;;6.25;4.47;;;16.20;69.90;;;;;;10909047;32;20038;-75
2023/03/28 18:31:30;;;;;;;5.62;4.20;;;16.20;69.50;;;;;;10909051;32;20045;-75
2023/03/28 18:37:33;;;;;;;5.85;4.15;;;16.20;69.70;;;;;;10908680;32;20419;-75
2023/03/28 18:43:36;;;;;;;6.75;4.87;;;16.20;71.20;;;;;;10908911;32;20015;-75
2023/03/28 18:49:39;;;;;;;8.45;6.20;;;16.10;73.00;;;;;;10907974;32;20027;-75
2023/03/28 18:55:41;;;;;;;8.45;6.00;;;16.10;74.00;;;;;;10907121;32;20409;-75
2023/03/28 19:01:49;;;;;;;14.07;5.22;;;16.00;74.20;;;;;;10906618;32;20073;-75
2023/03/28 19:07:52;;;;;;;7.53;5.47;;;15.80;73.90;;;;;;10906592;32;20042;-75
2023/03/28 19:13:58;;;;;;;7.95;5.30;;;15.70;73.70;;;;;;10906784;32;20141;-76
2023/03/28 19:20:06;;;;;;;7.47;5.00;;;15.70;73.70;;;;;;10907636;32;20041;-76
2023/03/28 19:26:11;;;;;;;9.80;5.63;;;15.70;73.90;;;;;;10906935;32;20019;-76
2023/03/28 19:32:13;;;;;;;6.22;4.28;;;15.50;74.00;;;;;;10907036;32;20058;-76
2023/03/28 19:38:15;;;;;;;6.25;4.80;;;15.30;74.30;;;;;;10903108;32;20023;-76
2023/03/28 19:44:17;;;;;;;5.32;3.92;;;15.20;74.30;;;;;;10907428;32;20408;-76
2023/03/28 19:51:00;;;;;;;5.30;3.95;;;15.20;73.80;;;;;;10902346;32;20405;-76
2023/03/28 19:57:02;;;;;;;7.37;5.30;;;14.90;74.20;;;;;;10901574;32;20023;-76
2023/03/28 20:03:04;;;;;;;4.93;3.78;;;14.80;74.30;;;;;;10926101;32;20096;-76
2023/03/28 20:09:07;;;;;;;4.10;3.25;;;14.80;73.00;;;;;;10943179;32;20015;-75
2023/03/28 20:15:09;;;;;;;5.50;3.67;;;14.60;72.90;;;;;;10943759;32;20058;-76
2023/03/28 20:21:12;;;;;;;6.20;4.28;;;14.50;74.30;;;;;;10929865;32;20403;-76
2023/03/28 20:27:15;;;;;;;4.10;3.08;;;14.40;74.50;;;;;;10942965;32;20061;-76
2023/03/28 20:33:21;;;;;;;9.10;3.53;;;14.40;74.70;;;;;;10925591;32;20384;-76
2023/03/28 20:39:27;;;;;;;4.32;2.58;;;14.30;74.80;;;;;;10941826;32;20069;-76
2023/03/28 20:45:29;;;;;;;4.28;2.28;;;14.20;74.00;;;;;;10925748;32;20041;-76
2023/03/28 20:51:31;;;;;;;2.70;2.33;;;14.00;75.00;;;;;;10939090;32;20019;-76
2023/03/28 20:57:40;;;;;;;3.12;2.15;;;13.90;75.40;;;;;;10943918;32;20360;-76
2023/03/28 21:03:47;;;;;;;4.17;2.27;;;14.00;75.60;;;;;;10954336;32;20290;-76
2023/03/28 21:09:49;;;;;;;3.08;2.10;;;14.20;75.20;;;;;;10954660;32;20011;-76
2023/03/28 21:15:51;;;;;;;5.82;2.12;;;14.20;75.10;;;;;;10938833;32;20117;-76
2023/03/28 21:21:56;;;;;;;2.85;2.28;;;14.10;75.00;;;;;;10939425;32;20343;-76
2023/03/28 21:27:58;;;;;;;5.50;3.47;;;14.00;75.10;;;;;;10950564;32;20344;-75
2023/03/28 21:34:00;;;;;;;7.30;5.10;;;14.10;75.70;;;;;;10954434;32;20023;-76
2023/03/28 21:40:05;;;;;;;3.58;2.58;;;14.20;75.30;;;;;;10954222;32;20019;-76
2023/03/28 21:46:08;;;;;;;6.85;4.40;;;14.20;74.60;;;;;;10950635;32;20396;-75
2023/03/28 21:52:10;;;;;;;5.53;3.58;;;14.20;74.40;;;;;;10939158;32;20397;-75
2023/03/28 21:58:13;;;;;;;7.57;5.75;;;14.10;73.90;;;;;;10939188;32;20034;-76
2023/03/28 22:04:15;;;;;;;5.45;3.00;;;14.00;73.40;;;;;;10953813;32;20019;-76
2023/03/28 22:10:18;;;;;;;7.82;4.85;;;13.90;73.60;;;;;;10950622;32;20019;-76
2023/03/28 22:16:20;;;;;;;5.50;3.55;;;13.70;73.70;;;;;;10947775;32;20010;-76
2023/03/28 22:22:28;;;;;;;5.00;2.70;;;13.50;73.60;;;;;;10944873;32;20026;-76
2023/03/28 22:28:30;;;;;;;7.83;4.27;;;13.50;73.20;;;;;;10932640;32;20053;-76
2023/03/28 22:34:32;;;;;;;5.35;3.17;;;13.30;73.40;;;;;;10934419;32;20011;-76
2023/03/28 22:40:34;;;;;;;7.40;3.25;;;13.20;73.60;;;;;;10932186;32;20027;-76
2023/03/28 22:46:49;;;;;;;5.62;3.42;;;13.00;74.00;;;;;;10946153;32;20019;-76
2023/03/28 22:52:52;;;;;;;5.28;3.33;;;12.90;73.90;;;;;;10945239;32;20045;-76
2023/03/28 22:58:54;;;;;;;6.05;4.00;;;12.90;74.00;;;;;;10931048;32;20054;-76
2023/03/28 23:04:57;;;;;;;5.78;3.33;;;12.90;73.80;;;;;;10931342;32;20023;-76
2023/03/28 23:10:59;;;;;;;5.00;3.70;;;12.80;73.90;;;;;;10939291;32;20027;-75
2023/03/28 23:17:01;;;;;;;6.25;4.15;;;12.80;73.70;;;;;;10930990;32;20480;-75
2023/03/28 23:23:03;;;;;;;7.55;3.70;;;13.00;74.30;;;;;;10925546;32;20053;-75
2023/03/28 23:29:05;;;;;;;5.60;3.72;;;12.80;74.30;;;;;;10945437;32;20019;-75
2023/03/28 23:35:09;;;;;;;6.68;4.85;;;12.70;74.60;;;;;;10941948;32;20019;-75
2023/03/28 23:41:11;;;;;;;11.50;4.93;;;12.90;75.10;;;;;;10942237;32;20045;-75
2023/03/28 23:47:13;;;;;;;10.55;5.93;;;13.00;75.20;;;;;;10944554;32;20435;-75
2023/03/28 23:53:15;;;;;;;6.22;3.95;;;13.00;75.30;;;;;;10829795;27;20036;-75
2023/03/28 23:59:17;;;;;;;7.55;3.70;;;12.80;75.00;;;;;;10840414;32;20069;-75
